Airfield :
LOGIN :

Register | Disclaimer

   EN    FR    IT 

 










Legend :    VFR   Marginal VFR   IFR   Intensive IFR   Very Intensive IFR
Visi :
Ceiling :
>= 8 km
>= 3000ft
5 to 8 km
1000 to 3000 ft
1500m to 5 km
500 to 1000 ft
800 to 1500m
200 to 500 ft
< 800m
< 200 ft
Symbols :   Thunderstorms  Fog  Heavy snow  Heavy precipitations  Wind > 20 kt
SIGMETs :     Misc.  Thunderstorms  Icing  Turbulence  Mountain Waves  Volcanic Ashes






- Airport Elevation : 141 ft
- IATA code : SKS


EKSP - Srydstrup Vojens

CURRENT METAR :
  • 231120Z 25010KT 9999 -SHRA SCT008 SCT015CB BKN020 05/04 Q1000

EXPIRED METARs :
  • 231050Z 25011KT 8000 -SHRA SCT006 SCT015CB BKN020 05/04 Q1001
  • 231020Z 26010KT 8000 -SHRA SCT012CB BKN020 04/03 Q1001
  • 231005Z 24015KT 7000 -SHRA SCT015CB BKN018 04/02 Q1002
  • 230950Z 24012KT 8000 -SHRA FEW015CB SCT020 BKN030 05/03 Q1002
  • 230920Z 24012KT 9999 -SHRA FEW015CB SCT020 BKN040 05/03 Q1003
  • 230850Z 24015KT 9999 FEW015 BKN047 05/03 Q1003

TAF TAF EKSP
Valid from the 23 at 12:00 until the 24 at 12:00 UTC


231123Z 2312/2412 25012KT 9999 SCT020 BKN050
TEMPO 2312/2315 27015G25KT 7000 -RA BKN009 FEW020TCU
TEMPO 2315/2324 27018G30KT 5000 -SHRAGS SCT020CB
BECMG 2407/2410 19005KT



MET'MAP, your aeronautical weather chart ! - Copyright ORBIFLY December 2007 - Disclaimer

ORBIFLY MET'MAP TEAM :

Programming & Development : Alexandra Zaïnal
Concept & original design : Baudouin d'Aumeries
Assistance for programming : Marc-Olivier Méhu
Technical & hardware support : Manuel Goepfert

Contact : metmap@orbifly.com




SOURCES & CREDITS :

   NOAA